Terminal Aerodrome Forecast
Issued by NWS

Home | Current Version | Previous Version | Graphics & Text | Print | Product List | Glossary On
Versions: 1 2 3 4 5 6 7 8 9 10 11 12 13 14 15 16 17 18 19 20 21
000
FTUS43 KTOP 170900 AAA
TAFFOE
TAF AMD
KFOE 170948Z 1710/1806 00000KT 5SM BR MIFG SKC
      TEMPO 1711/1714 2SM BR SCT007
     FM171400 03005KT 6SM BR SCT010
     FM171700 03008KT P6SM SCT040=

USA.gov is the U.S. government's official web portal to all federal, state and local government web resources and services.